createdAt,value
2022-11-09T00:00:29.504Z,0
2022-11-09T00:01:35.684Z,0
2022-11-09T00:02:41.853Z,0
2022-11-09T00:03:48.022Z,0
2022-11-09T00:04:53.192Z,0
2022-11-09T00:05:59.366Z,0
2022-11-09T00:07:05.548Z,0
2022-11-09T00:08:11.709Z,0
2022-11-09T00:09:17.873Z,0
2022-11-09T00:10:24.037Z,0
2022-11-09T00:11:30.234Z,0
2022-11-09T00:12:36.373Z,0
2022-11-09T00:13:42.559Z,0
2022-11-09T00:14:48.736Z,0
2022-11-09T00:15:54.877Z,0
2022-11-09T00:17:01.056Z,0
2022-11-09T00:18:07.233Z,0
2022-11-09T00:19:12.434Z,0
2022-11-09T00:20:18.592Z,0
2022-11-09T00:21:24.745Z,0
2022-11-09T00:22:30.917Z,0
2022-11-09T00:23:37.083Z,0
2022-11-09T00:24:43.267Z,0
2022-11-09T00:25:49.424Z,0
2022-11-09T00:26:55.598Z,0
2022-11-09T00:28:01.781Z,0
2022-11-09T00:29:07.945Z,0
2022-11-09T00:30:14.118Z,0
2022-11-09T00:31:20.310Z,0
2022-11-09T00:32:26.507Z,0
2022-11-09T00:33:31.631Z,0
2022-11-09T00:34:37.798Z,0
2022-11-09T00:35:43.955Z,0
2022-11-09T00:36:50.139Z,0
2022-11-09T00:37:56.308Z,0
2022-11-09T00:39:02.480Z,0
2022-11-09T00:40:08.652Z,0
2022-11-09T00:41:14.815Z,0
2022-11-09T00:42:20.983Z,0
2022-11-09T00:43:27.156Z,0
2022-11-09T00:44:33.327Z,0
2022-11-09T00:45:39.478Z,0
2022-11-09T00:46:45.655Z,0
2022-11-09T00:48:57.016Z,0
2022-11-09T00:50:03.190Z,0
2022-11-09T00:51:09.362Z,0
2022-11-09T00:52:15.503Z,0
2022-11-09T00:53:21.689Z,0
2022-11-09T00:54:27.926Z,0
2022-11-09T00:55:34.016Z,0
2022-11-09T00:56:40.193Z,0
2022-11-09T00:57:46.377Z,0
2022-11-09T00:58:52.536Z,0
2022-11-09T00:59:58.708Z,0
2022-11-09T01:01:04.881Z,0
2022-11-09T01:02:10.061Z,0
2022-11-09T01:03:16.227Z,0
2022-11-09T01:04:22.402Z,0
2022-11-09T01:05:28.562Z,0
2022-11-09T01:06:34.734Z,0
2022-11-09T01:07:40.913Z,0
2022-11-09T01:08:47.084Z,0
2022-11-09T01:09:53.256Z,0
2022-11-09T01:10:59.412Z,0
2022-11-09T01:12:05.572Z,0
2022-11-09T01:13:11.754Z,0
2022-11-09T01:14:17.920Z,0
2022-11-09T01:15:24.100Z,0
2022-11-09T01:16:29.292Z,0
2022-11-09T01:17:35.443Z,0
2022-11-09T01:18:41.618Z,0
2022-11-09T01:19:47.787Z,0
2022-11-09T01:20:53.972Z,0
2022-11-09T01:22:00.126Z,0
2022-11-09T01:23:06.298Z,0
2022-11-09T01:24:12.463Z,0
2022-11-09T01:25:18.639Z,0
2022-11-09T01:26:24.806Z,0
2022-11-09T01:27:30.981Z,0
2022-11-09T01:28:37.144Z,0
2022-11-09T01:29:43.330Z,0
2022-11-09T01:30:48.503Z,0
2022-11-09T01:31:54.681Z,0
2022-11-09T01:33:00.834Z,0
2022-11-09T01:34:07.022Z,0
2022-11-09T01:35:13.176Z,0
2022-11-09T01:36:19.344Z,0
2022-11-09T01:37:25.527Z,0
2022-11-09T01:38:31.682Z,0
2022-11-09T01:39:37.859Z,0
2022-11-09T01:40:44.031Z,0
2022-11-09T01:41:50.207Z,0
2022-11-09T01:42:56.362Z,0
2022-11-09T01:44:02.559Z,0
2022-11-09T01:45:07.748Z,0
2022-11-09T01:46:13.909Z,0
2022-11-09T01:47:20.062Z,0
2022-11-09T01:48:26.242Z,0
2022-11-09T01:49:32.399Z,0
2022-11-09T01:50:38.582Z,0
2022-11-09T01:51:44.755Z,0
2022-11-09T01:52:50.916Z,0
2022-11-09T01:53:57.076Z,0
2022-11-09T01:55:03.243Z,0
2022-11-09T01:56:09.428Z,0
2022-11-09T01:57:15.600Z,0
2022-11-09T01:58:21.776Z,0
2022-11-09T01:59:26.945Z,0
2022-11-09T02:00:33.128Z,0
2022-11-09T02:01:39.299Z,0
2022-11-09T02:02:45.454Z,0
2022-11-09T02:03:51.627Z,0
2022-11-09T02:04:57.781Z,0
2022-11-09T02:06:03.964Z,0
2022-11-09T02:07:10.145Z,0
2022-11-09T02:08:16.293Z,0
2022-11-09T02:09:22.478Z,0
2022-11-09T02:10:28.633Z,0
2022-11-09T02:11:34.826Z,0
2022-11-09T02:12:40.971Z,0
2022-11-09T02:13:46.161Z,0
2022-11-09T02:14:52.330Z,0
2022-11-09T02:15:58.501Z,0
2022-11-09T02:17:04.678Z,0
2022-11-09T02:18:10.833Z,0
2022-11-09T02:19:17.013Z,0
2022-11-09T02:20:23.182Z,0
2022-11-09T02:21:29.358Z,0
2022-11-09T02:22:35.531Z,0
2022-11-09T02:23:41.681Z,0
2022-11-09T02:24:47.852Z,0
2022-11-09T02:25:54.053Z,0
2022-11-09T02:27:00.201Z,0
2022-11-09T02:28:05.383Z,0
2022-11-09T02:29:11.566Z,0
2022-11-09T02:30:17.724Z,0
2022-11-09T02:31:23.898Z,0
2022-11-09T02:32:30.077Z,0
2022-11-09T02:33:36.230Z,0
2022-11-09T02:34:41.429Z,0
2022-11-09T02:35:47.609Z,0
2022-11-09T02:36:53.779Z,0
2022-11-09T02:37:59.929Z,0
2022-11-09T02:39:06.107Z,0
2022-11-09T02:40:12.305Z,0
2022-11-09T02:41:18.438Z,0
2022-11-09T02:42:24.601Z,0
2022-11-09T02:43:30.780Z,0
2022-11-09T02:44:36.948Z,0
2022-11-09T02:45:43.116Z,0
2022-11-09T02:46:49.299Z,0
2022-11-09T02:47:55.475Z,0
2022-11-09T02:49:00.650Z,0
2022-11-09T02:50:06.856Z,0
2022-11-09T02:51:12.981Z,0
2022-11-09T02:52:19.154Z,0
2022-11-09T02:53:25.323Z,0
2022-11-09T02:54:31.485Z,0
2022-11-09T02:55:37.675Z,0
2022-11-09T02:56:43.829Z,0
2022-11-09T02:57:50.010Z,0
2022-11-09T02:58:56.175Z,0
2022-11-09T03:00:02.350Z,0
2022-11-09T03:01:08.521Z,0
2022-11-09T03:02:14.698Z,0
2022-11-09T03:03:19.875Z,0
2022-11-09T03:04:26.055Z,0
2022-11-09T03:05:32.219Z,0
2022-11-09T03:06:38.383Z,0
2022-11-09T03:07:44.542Z,0
2022-11-09T03:08:50.716Z,0
2022-11-09T03:09:56.873Z,0
2022-11-09T03:11:03.065Z,0
2022-11-09T03:12:09.232Z,0
2022-11-09T03:13:15.383Z,0
2022-11-09T03:14:21.578Z,0
2022-11-09T03:16:33.901Z,0
2022-11-09T03:17:39.078Z,0
2022-11-09T03:18:45.269Z,0
2022-11-09T03:19:51.421Z,0
2022-11-09T03:20:57.604Z,0
2022-11-09T03:22:03.774Z,0
2022-11-09T03:23:09.924Z,0
2022-11-09T03:24:16.103Z,0
2022-11-09T03:25:22.285Z,0
2022-11-09T03:26:28.441Z,0
2022-11-09T03:27:34.615Z,0
2022-11-09T03:28:40.787Z,0
2022-11-09T03:29:46.955Z,0
2022-11-09T03:30:53.114Z,0
2022-11-09T03:31:58.322Z,0
2022-11-09T03:33:04.490Z,0
2022-11-09T03:34:10.649Z,0
2022-11-09T03:35:16.825Z,0
2022-11-09T03:36:22.991Z,0
2022-11-09T03:37:29.164Z,0
2022-11-09T03:38:35.317Z,0
2022-11-09T03:39:41.494Z,0
2022-11-09T03:40:47.663Z,0
2022-11-09T03:41:53.831Z,0
2022-11-09T03:43:00.032Z,0
2022-11-09T03:44:06.197Z,0
2022-11-09T03:45:12.353Z,0
2022-11-09T03:46:17.529Z,0
2022-11-09T03:47:23.702Z,0
2022-11-09T03:48:29.870Z,0
2022-11-09T03:49:36.029Z,0
2022-11-09T03:50:42.212Z,0
2022-11-09T03:51:48.372Z,0
2022-11-09T03:52:54.559Z,0
2022-11-09T03:54:00.721Z,0
2022-11-09T03:55:06.929Z,0
2022-11-09T03:56:13.068Z,0
2022-11-09T03:57:19.225Z,0
2022-11-09T03:58:25.394Z,0
2022-11-09T03:59:31.575Z,0
2022-11-09T04:00:36.757Z,0
2022-11-09T04:01:42.911Z,0
2022-11-09T04:02:49.103Z,0
2022-11-09T04:03:55.264Z,0
2022-11-09T04:05:01.434Z,0
2022-11-09T04:06:07.603Z,0
2022-11-09T04:07:13.773Z,0
2022-11-09T04:08:19.938Z,0
2022-11-09T04:09:26.119Z,0
2022-11-09T04:10:32.270Z,0
2022-11-09T04:11:38.453Z,0
2022-11-09T04:12:44.619Z,0
2022-11-09T04:13:50.780Z,0
2022-11-09T04:14:55.965Z,0
2022-11-09T04:16:02.148Z,0
2022-11-09T04:17:08.318Z,0
2022-11-09T04:18:14.476Z,0
2022-11-09T04:19:20.643Z,0
2022-11-09T04:20:26.814Z,0
2022-11-09T04:21:32.993Z,0
2022-11-09T04:22:39.175Z,0
2022-11-09T04:23:45.341Z,0
2022-11-09T04:24:51.505Z,0
2022-11-09T04:25:57.669Z,0
2022-11-09T04:27:03.841Z,0
2022-11-09T04:28:10.008Z,0
2022-11-09T04:29:15.184Z,0
2022-11-09T04:30:21.363Z,0
2022-11-09T04:31:27.541Z,0
2022-11-09T04:32:33.713Z,0
2022-11-09T04:33:39.871Z,0
2022-11-09T04:34:46.048Z,0
2022-11-09T04:35:52.209Z,0
2022-11-09T04:36:58.375Z,0
2022-11-09T04:38:04.553Z,0
2022-11-09T04:39:10.721Z,0
2022-11-09T04:40:16.894Z,0
2022-11-09T04:41:23.056Z,0
2022-11-09T04:42:29.247Z,0
2022-11-09T04:43:34.428Z,0
2022-11-09T04:44:40.601Z,0
2022-11-09T04:45:46.750Z,0
2022-11-09T04:46:52.943Z,0
2022-11-09T04:47:59.097Z,0
2022-11-09T04:49:05.298Z,0
2022-11-09T04:50:11.451Z,0
2022-11-09T04:51:17.611Z,0
2022-11-09T04:52:23.807Z,0
2022-11-09T04:53:29.939Z,0
2022-11-09T04:54:36.128Z,0
2022-11-09T04:55:42.308Z,0
2022-11-09T04:56:48.448Z,0
2022-11-09T04:57:53.643Z,0
2022-11-09T04:58:59.803Z,0
2022-11-09T05:00:05.968Z,0
2022-11-09T05:01:12.157Z,0
2022-11-09T05:03:24.486Z,0
2022-11-09T05:04:30.649Z,0
2022-11-09T05:05:36.824Z,0
2022-11-09T05:06:42.999Z,0
2022-11-09T05:07:49.158Z,0
2022-11-09T05:08:55.324Z,0
2022-11-09T05:10:01.509Z,0
2022-11-09T05:11:07.692Z,0
2022-11-09T05:12:12.865Z,0
2022-11-09T05:13:19.030Z,0
2022-11-09T05:14:25.204Z,0
2022-11-09T05:15:31.364Z,0
2022-11-09T05:16:37.535Z,0
2022-11-09T05:17:43.715Z,0
2022-11-09T05:18:49.868Z,0
2022-11-09T05:19:56.055Z,0
2022-11-09T05:21:02.219Z,0
2022-11-09T05:22:08.377Z,0
2022-11-09T05:23:14.555Z,0
2022-11-09T05:24:20.724Z,0
2022-11-09T05:25:26.907Z,0
2022-11-09T05:26:32.088Z,0
2022-11-09T05:27:38.255Z,0
2022-11-09T05:28:44.417Z,0
2022-11-09T05:29:50.596Z,0
2022-11-09T05:30:56.759Z,0
2022-11-09T05:32:02.937Z,0
2022-11-09T05:33:09.090Z,0
2022-11-09T05:34:15.267Z,0
2022-11-09T05:35:21.427Z,0
2022-11-09T05:36:27.616Z,0
2022-11-09T05:37:33.786Z,0
2022-11-09T05:38:39.946Z,0
2022-11-09T05:39:46.138Z,0
2022-11-09T05:40:51.307Z,0
2022-11-09T05:41:57.464Z,0
2022-11-09T05:43:03.648Z,0
2022-11-09T05:44:09.819Z,0
2022-11-09T05:45:15.981Z,0
2022-11-09T05:46:22.148Z,0
2022-11-09T05:47:28.319Z,0
2022-11-09T05:48:34.492Z,0
2022-11-09T05:49:40.654Z,0
2022-11-09T05:50:46.834Z,0
2022-11-09T05:51:52.994Z,0
2022-11-09T05:52:59.154Z,0
2022-11-09T05:54:05.339Z,0
2022-11-09T05:55:10.524Z,0
2022-11-09T05:56:16.688Z,0
2022-11-09T05:57:22.868Z,0
2022-11-09T05:58:29.033Z,0
2022-11-09T05:59:35.203Z,0
2022-11-09T06:00:41.368Z,0
2022-11-09T06:01:47.555Z,0
2022-11-09T06:02:53.731Z,0
2022-11-09T06:03:59.908Z,0
2022-11-09T06:05:06.052Z,0
2022-11-09T06:06:12.212Z,0
2022-11-09T06:07:18.403Z,4
2022-11-09T06:08:24.559Z,4
2022-11-09T06:09:29.747Z,4
2022-11-09T06:10:35.929Z,4
2022-11-09T06:11:42.082Z,4
2022-11-09T06:12:48.252Z,4
2022-11-09T06:13:54.447Z,8
2022-11-09T06:15:00.582Z,8
2022-11-09T06:16:05.803Z,8
2022-11-09T06:17:11.955Z,8
2022-11-09T06:18:18.124Z,12
2022-11-09T06:19:24.307Z,12
2022-11-09T06:20:30.460Z,12
2022-11-09T06:21:36.638Z,12
2022-11-09T06:22:42.817Z,12
2022-11-09T06:23:48.982Z,12
2022-11-09T06:24:55.132Z,12
2022-11-09T06:26:01.321Z,16
2022-11-09T06:27:07.484Z,16
2022-11-09T06:28:13.655Z,20
2022-11-09T06:29:19.821Z,24
2022-11-09T06:30:25.008Z,36
2022-11-09T06:31:31.180Z,44
2022-11-09T06:32:37.344Z,48
2022-11-09T06:33:43.514Z,48
2022-11-09T06:34:49.691Z,64
2022-11-09T06:35:55.848Z,76
2022-11-09T06:37:02.018Z,64
2022-11-09T06:38:08.188Z,48
2022-11-09T06:39:14.369Z,44
2022-11-09T06:40:20.535Z,52
2022-11-09T06:41:26.756Z,56
2022-11-09T06:42:32.880Z,60
2022-11-09T06:43:39.059Z,64
2022-11-09T06:44:44.235Z,68
2022-11-09T06:45:50.411Z,68
2022-11-09T06:46:56.568Z,68
2022-11-09T06:48:02.747Z,92
2022-11-09T06:49:08.929Z,96
2022-11-09T06:50:15.099Z,104
2022-11-09T06:51:21.257Z,120
2022-11-09T06:52:27.425Z,88
2022-11-09T06:53:33.588Z,88
2022-11-09T06:54:39.752Z,80
2022-11-09T06:55:45.926Z,104
2022-11-09T06:56:52.105Z,128
2022-11-09T06:57:58.260Z,172
2022-11-09T06:59:03.460Z,184
2022-11-09T07:00:09.663Z,132
2022-11-09T07:01:15.782Z,128
2022-11-09T07:02:21.955Z,128
2022-11-09T07:03:28.133Z,144
2022-11-09T07:04:34.300Z,168
2022-11-09T07:05:40.459Z,216
2022-11-09T07:06:46.631Z,248
2022-11-09T07:07:52.805Z,316
2022-11-09T07:08:58.995Z,388
2022-11-09T07:10:05.149Z,280
2022-11-09T07:11:11.314Z,280
2022-11-09T07:12:17.482Z,240
2022-11-09T07:13:22.667Z,276
2022-11-09T07:14:28.837Z,224
2022-11-09T07:15:35.021Z,196
2022-11-09T07:16:41.180Z,280
2022-11-09T07:17:47.347Z,380
2022-11-09T07:18:53.522Z,436
2022-11-09T07:19:59.695Z,368
2022-11-09T07:21:05.866Z,496
2022-11-09T07:22:12.030Z,740
2022-11-09T07:23:18.195Z,748
2022-11-09T07:24:24.404Z,520
2022-11-09T07:25:30.549Z,472
2022-11-09T07:26:36.722Z,408
2022-11-09T07:27:41.884Z,500
2022-11-09T07:28:48.067Z,748
2022-11-09T07:29:54.221Z,800
2022-11-09T07:31:00.404Z,808
2022-11-09T07:32:06.580Z,708
2022-11-09T07:33:12.754Z,640
2022-11-09T07:34:18.915Z,504
2022-11-09T07:35:25.094Z,644
2022-11-09T07:36:31.309Z,960
2022-11-09T07:37:37.432Z,1108
2022-11-09T07:38:43.579Z,1156
2022-11-09T07:39:49.780Z,956
2022-11-09T07:40:55.929Z,1188
2022-11-09T07:42:01.110Z,1716
2022-11-09T07:43:07.283Z,1660
2022-11-09T07:44:13.469Z,1460
2022-11-09T07:45:19.624Z,1204
2022-11-09T07:46:25.802Z,1024
2022-11-09T07:47:31.980Z,1156
2022-11-09T07:48:38.136Z,1564
2022-11-09T07:49:44.315Z,1436
2022-11-09T07:50:50.485Z,1516
2022-11-09T07:51:56.663Z,2744
2022-11-09T07:53:02.820Z,3200
2022-11-09T07:54:09.007Z,3420
2022-11-09T07:55:15.160Z,2568
2022-11-09T07:56:20.357Z,1812
2022-11-09T07:57:26.539Z,2536
2022-11-09T07:58:32.699Z,3148
2022-11-09T07:59:38.878Z,2420
2022-11-09T08:00:45.034Z,2848
2022-11-09T08:01:51.192Z,3064
2022-11-09T08:02:57.361Z,3352
2022-11-09T08:04:03.535Z,2848
2022-11-09T08:05:09.700Z,2328
2022-11-09T08:06:15.870Z,2144
2022-11-09T08:07:22.052Z,2592
2022-11-09T08:08:28.213Z,2824
2022-11-09T08:09:34.384Z,3704
2022-11-09T08:10:39.558Z,4588
2022-11-09T08:11:45.731Z,5060
2022-11-09T08:12:51.913Z,4448
2022-11-09T08:13:58.083Z,4608
2022-11-09T08:15:04.237Z,4724
2022-11-09T08:16:10.404Z,4460
2022-11-09T08:17:16.628Z,3848
2022-11-09T08:18:22.757Z,3384
2022-11-09T08:19:28.919Z,3164
2022-11-09T08:20:35.094Z,3544
2022-11-09T08:21:41.270Z,3608
2022-11-09T08:22:47.435Z,2728
2022-11-09T08:23:53.609Z,2812
2022-11-09T08:24:58.797Z,3892
2022-11-09T08:26:04.951Z,4912
2022-11-09T08:27:11.122Z,6008
2022-11-09T08:28:17.288Z,6208
2022-11-09T08:29:23.474Z,6888
2022-11-09T08:30:29.642Z,9084
2022-11-09T08:31:35.812Z,8936
2022-11-09T08:32:41.966Z,7832
2022-11-09T08:33:48.157Z,8452
2022-11-09T08:34:54.306Z,10472
2022-11-09T08:36:00.486Z,9432
2022-11-09T08:37:06.656Z,6212
2022-11-09T08:38:12.815Z,5932
2022-11-09T08:39:18.011Z,5416
2022-11-09T08:40:24.173Z,3936
2022-11-09T08:41:30.355Z,3272
2022-11-09T08:42:36.525Z,3088
2022-11-09T08:43:42.675Z,3020
2022-11-09T08:44:48.854Z,4952
2022-11-09T08:45:55.028Z,6920
2022-11-09T08:47:01.202Z,7904
2022-11-09T08:48:07.351Z,7488
2022-11-09T08:49:13.522Z,7064
2022-11-09T08:50:19.709Z,7348
2022-11-09T08:51:25.870Z,7672
2022-11-09T08:52:32.046Z,8076
2022-11-09T08:53:37.247Z,7576
2022-11-09T08:54:43.386Z,7804
2022-11-09T08:55:49.564Z,10024
2022-11-09T08:56:55.764Z,12100
2022-11-09T08:58:01.910Z,13476
2022-11-09T08:59:08.065Z,13008
2022-11-09T09:00:14.234Z,12968
2022-11-09T09:01:20.418Z,12508
2022-11-09T09:02:26.573Z,12180
2022-11-09T09:03:32.749Z,12604
2022-11-09T09:04:38.914Z,12516
2022-11-09T09:05:45.075Z,11172
2022-11-09T09:06:51.271Z,10596
2022-11-09T09:07:56.457Z,10384
2022-11-09T09:09:02.610Z,9128
2022-11-09T09:10:08.796Z,9324
2022-11-09T09:11:14.993Z,7492
2022-11-09T09:12:21.124Z,5600
2022-11-09T09:13:27.294Z,5148
2022-11-09T09:14:33.474Z,4644
2022-11-09T09:15:39.627Z,4216
2022-11-09T09:16:45.791Z,4268
2022-11-09T09:17:51.980Z,3908
2022-11-09T09:18:58.137Z,3760
2022-11-09T09:20:04.300Z,4504
2022-11-09T09:21:10.504Z,5432
2022-11-09T09:22:15.661Z,5656
2022-11-09T09:23:21.838Z,6328
2022-11-09T09:24:28.012Z,7412
2022-11-09T09:25:34.167Z,7084
2022-11-09T09:26:40.347Z,6612
2022-11-09T09:27:46.522Z,7176
2022-11-09T09:28:52.674Z,7512
2022-11-09T09:29:58.860Z,6856
2022-11-09T09:31:05.019Z,6824
2022-11-09T09:32:11.200Z,6676
2022-11-09T09:33:17.367Z,7240
2022-11-09T09:34:23.535Z,6968
2022-11-09T09:35:29.714Z,7408
2022-11-09T09:36:34.895Z,7840
2022-11-09T09:37:41.055Z,7524
2022-11-09T09:38:47.227Z,7400
2022-11-09T09:39:53.393Z,8444
2022-11-09T09:40:59.554Z,9936
2022-11-09T09:42:05.722Z,10244
2022-11-09T09:43:11.904Z,9824
2022-11-09T09:44:18.063Z,8224
2022-11-09T09:45:24.229Z,6900
2022-11-09T09:46:30.407Z,7512
2022-11-09T09:47:36.579Z,9348
2022-11-09T09:48:42.774Z,11224
2022-11-09T09:49:48.921Z,11980
2022-11-09T09:50:54.106Z,11780
2022-11-09T09:52:00.266Z,10524
2022-11-09T09:53:06.440Z,8664
2022-11-09T09:54:12.621Z,7580
2022-11-09T09:55:18.782Z,8316
2022-11-09T09:56:24.977Z,7176
2022-11-09T09:57:30.138Z,5112
2022-11-09T09:58:36.306Z,3836
2022-11-09T09:59:42.486Z,3248
2022-11-09T10:00:48.662Z,3888
2022-11-09T10:01:54.814Z,4092
2022-11-09T10:03:00.989Z,4336
2022-11-09T10:04:07.172Z,5500
2022-11-09T10:05:13.339Z,5976
2022-11-09T10:06:19.498Z,6140
2022-11-09T10:07:25.677Z,6176
2022-11-09T10:08:31.838Z,6524
2022-11-09T10:09:38.016Z,6672
2022-11-09T10:10:44.177Z,7228
2022-11-09T10:11:49.359Z,7336
2022-11-09T10:12:55.530Z,6740
2022-11-09T10:14:01.706Z,6964
2022-11-09T10:15:07.882Z,8532
2022-11-09T10:16:14.041Z,8820
2022-11-09T10:17:20.209Z,8500
2022-11-09T10:18:26.389Z,7516
2022-11-09T10:19:32.567Z,6764
2022-11-09T10:20:38.726Z,6152
2022-11-09T10:21:44.894Z,5492
2022-11-09T10:22:51.055Z,6328
2022-11-09T10:23:57.228Z,6672
2022-11-09T10:25:03.403Z,6552
2022-11-09T10:26:08.584Z,5868
2022-11-09T10:27:14.756Z,5168
2022-11-09T10:28:20.942Z,5512
2022-11-09T10:29:27.096Z,5896
2022-11-09T10:30:33.261Z,4976
2022-11-09T10:31:39.437Z,4828
2022-11-09T10:32:45.602Z,6720
2022-11-09T10:33:51.763Z,7860
2022-11-09T10:34:57.934Z,7908
2022-11-09T10:36:04.105Z,7612
2022-11-09T10:37:10.271Z,7684
2022-11-09T10:38:16.445Z,9512
2022-11-09T10:39:22.623Z,9820
2022-11-09T10:40:27.812Z,8440
2022-11-09T10:41:33.984Z,8652
2022-11-09T10:42:40.140Z,10192
2022-11-09T10:43:46.320Z,11960
2022-11-09T10:44:52.476Z,11408
2022-11-09T10:45:58.657Z,9624
2022-11-09T10:47:04.856Z,7372
2022-11-09T10:48:10.987Z,6056
2022-11-09T10:49:17.159Z,6240
2022-11-09T10:50:23.326Z,7120
2022-11-09T10:51:29.502Z,7456
2022-11-09T10:52:35.664Z,7324
2022-11-09T10:53:41.837Z,7180
2022-11-09T10:54:47.029Z,6948
2022-11-09T10:55:53.182Z,6748
2022-11-09T10:56:59.372Z,8064
2022-11-09T10:58:05.520Z,9440
2022-11-09T10:59:11.714Z,8996
2022-11-09T11:00:17.877Z,8536
2022-11-09T11:01:24.050Z,8684
2022-11-09T11:02:30.205Z,9576
2022-11-09T11:03:36.391Z,10260
2022-11-09T11:04:42.552Z,10404
2022-11-09T11:05:48.733Z,9052
2022-11-09T11:06:54.887Z,8084
2022-11-09T11:08:01.068Z,8992
2022-11-09T11:09:06.235Z,9880
2022-11-09T11:10:12.425Z,9860
2022-11-09T11:11:18.592Z,8752
2022-11-09T11:12:24.751Z,9116
2022-11-09T11:13:30.916Z,10920
2022-11-09T11:14:37.104Z,12284
2022-11-09T11:15:43.259Z,12580
2022-11-09T11:16:49.420Z,11168
2022-11-09T11:17:55.608Z,9300
2022-11-09T11:19:01.778Z,8632
2022-11-09T11:20:07.951Z,8172
2022-11-09T11:21:14.113Z,8832
2022-11-09T11:22:20.289Z,9276
2022-11-09T11:23:25.448Z,9480
2022-11-09T11:24:31.641Z,9804
2022-11-09T11:25:37.802Z,10236
2022-11-09T11:26:43.971Z,10424
2022-11-09T11:27:50.131Z,10448
2022-11-09T11:28:56.310Z,10036
2022-11-09T11:30:02.474Z,9900
2022-11-09T11:31:08.650Z,10008
2022-11-09T11:32:14.820Z,10304
2022-11-09T11:33:20.998Z,11204
2022-11-09T11:34:27.161Z,11684
2022-11-09T11:35:33.337Z,12088
2022-11-09T11:36:39.491Z,12704
2022-11-09T11:37:44.693Z,12876
2022-11-09T11:38:50.864Z,12928
2022-11-09T11:39:57.028Z,12408
2022-11-09T11:41:03.190Z,11352
2022-11-09T11:42:09.357Z,10544
2022-11-09T11:43:15.529Z,10060
2022-11-09T11:44:21.708Z,9956
2022-11-09T11:45:27.926Z,9840
2022-11-09T11:46:34.056Z,9784
2022-11-09T11:47:40.197Z,9784
2022-11-09T11:48:46.383Z,9656
2022-11-09T11:49:52.545Z,9208
2022-11-09T11:50:58.734Z,8452
2022-11-09T11:52:03.901Z,7700
2022-11-09T11:53:10.077Z,7944
2022-11-09T11:54:16.235Z,9112
2022-11-09T11:55:22.416Z,9748
2022-11-09T11:56:28.585Z,9616
2022-11-09T11:57:34.758Z,9568
2022-11-09T11:58:40.927Z,10052
2022-11-09T11:59:47.098Z,10420
2022-11-09T12:00:53.264Z,10552
2022-11-09T12:01:59.443Z,10640
2022-11-09T12:03:05.589Z,10736
2022-11-09T12:04:11.789Z,10788
2022-11-09T12:05:17.937Z,10888
2022-11-09T12:06:23.129Z,11216
2022-11-09T12:07:29.299Z,11548
2022-11-09T12:08:35.467Z,11600
2022-11-09T12:09:41.666Z,11480
2022-11-09T12:10:47.808Z,11380
2022-11-09T12:11:53.986Z,11352
2022-11-09T12:13:00.164Z,11376
2022-11-09T12:14:06.318Z,11312
2022-11-09T12:15:12.483Z,11144
2022-11-09T12:16:18.664Z,10944
2022-11-09T12:17:24.825Z,10152
2022-11-09T12:18:30.999Z,9468
2022-11-09T12:19:37.204Z,8860
2022-11-09T12:20:42.348Z,8596
2022-11-09T12:21:48.518Z,8236
2022-11-09T12:22:54.695Z,7788
2022-11-09T12:24:00.861Z,6468
2022-11-09T12:25:07.035Z,5432
2022-11-09T12:26:13.203Z,5396
2022-11-09T12:27:19.368Z,6052
2022-11-09T12:28:25.549Z,6844
2022-11-09T12:29:31.716Z,7336
2022-11-09T12:30:37.887Z,7560
2022-11-09T12:31:44.056Z,7968
2022-11-09T12:32:50.223Z,8100
2022-11-09T12:33:56.391Z,8444
2022-11-09T12:35:01.577Z,8552
2022-11-09T12:36:07.736Z,7988
2022-11-09T12:37:13.909Z,7192
2022-11-09T12:38:20.068Z,6812
2022-11-09T12:39:26.256Z,7256
2022-11-09T12:40:32.415Z,7620
2022-11-09T12:41:38.600Z,7528
2022-11-09T12:42:44.749Z,7436
2022-11-09T12:43:50.936Z,7136
2022-11-09T12:44:57.096Z,6852
2022-11-09T12:46:03.269Z,6716
2022-11-09T12:47:09.428Z,6352
2022-11-09T12:48:15.608Z,5908
2022-11-09T12:49:20.794Z,5592
2022-11-09T12:50:27.015Z,5524
2022-11-09T12:51:33.124Z,5692
2022-11-09T12:52:39.300Z,6136
2022-11-09T12:53:45.480Z,6576
2022-11-09T12:54:51.647Z,7264
2022-11-09T12:55:57.808Z,7948
2022-11-09T12:57:03.971Z,8188
2022-11-09T12:58:10.144Z,7916
2022-11-09T12:59:16.320Z,7160
2022-11-09T13:00:22.515Z,5976
2022-11-09T13:01:28.659Z,4884
2022-11-09T13:02:34.830Z,4132
2022-11-09T13:03:40.029Z,3820
2022-11-09T13:04:46.191Z,3876
2022-11-09T13:05:52.340Z,3876
2022-11-09T13:06:58.534Z,3784
2022-11-09T13:08:04.706Z,3832
2022-11-09T13:09:10.861Z,3920
2022-11-09T13:10:17.020Z,3956
2022-11-09T13:11:23.203Z,3816
2022-11-09T13:12:29.377Z,3516
2022-11-09T13:13:35.540Z,3628
2022-11-09T13:14:41.706Z,4364
2022-11-09T13:15:47.871Z,5240
2022-11-09T13:16:54.041Z,6172
2022-11-09T13:17:59.213Z,7176
2022-11-09T13:19:05.397Z,7944
2022-11-09T13:20:11.574Z,8304
2022-11-09T13:21:17.748Z,8112
2022-11-09T13:22:23.912Z,7560
2022-11-09T13:23:30.089Z,6904
2022-11-09T13:24:36.283Z,6360
2022-11-09T13:25:42.467Z,5788
2022-11-09T13:26:48.651Z,5116
2022-11-09T13:27:54.841Z,4816
2022-11-09T13:29:00.986Z,4404
2022-11-09T13:30:07.107Z,3920
2022-11-09T13:31:13.297Z,3628
2022-11-09T13:32:18.457Z,3416
2022-11-09T13:33:24.748Z,3220
2022-11-09T13:34:30.814Z,2952
2022-11-09T13:35:37.063Z,2636
2022-11-09T13:36:43.245Z,2384
2022-11-09T13:37:49.565Z,2288
2022-11-09T13:38:54.589Z,2296
2022-11-09T13:40:00.887Z,2404
2022-11-09T13:41:07.012Z,2904
2022-11-09T13:42:13.128Z,3276
2022-11-09T13:43:19.295Z,2988
2022-11-09T13:44:25.593Z,2552
2022-11-09T13:45:31.729Z,2220
2022-11-09T13:46:37.863Z,2184
2022-11-09T13:47:44.036Z,2204
2022-11-09T13:48:50.193Z,2320
2022-11-09T13:49:56.315Z,2392
2022-11-09T13:51:02.599Z,2240
2022-11-09T13:52:08.690Z,1924
2022-11-09T13:53:13.862Z,1612
2022-11-09T13:54:20.089Z,1808
2022-11-09T13:55:26.182Z,2832
2022-11-09T13:56:32.496Z,3452
2022-11-09T13:57:38.597Z,3140
2022-11-09T13:58:44.565Z,2968
2022-11-09T13:59:50.732Z,2564
2022-11-09T14:00:57.048Z,2516
2022-11-09T14:02:03.161Z,2924
2022-11-09T14:03:09.379Z,2700
2022-11-09T14:04:15.584Z,2844
2022-11-09T14:05:21.794Z,3312
2022-11-09T14:06:27.910Z,3212
2022-11-09T14:07:33.188Z,3084
2022-11-09T14:08:39.303Z,3092
2022-11-09T14:09:45.465Z,3428
2022-11-09T14:10:51.447Z,3780
2022-11-09T14:11:57.861Z,3832
2022-11-09T14:13:03.952Z,3604
2022-11-09T14:14:09.942Z,3556
2022-11-09T14:15:16.301Z,3456
2022-11-09T14:16:22.604Z,3032
2022-11-09T14:17:28.654Z,2784
2022-11-09T14:18:34.803Z,2404
2022-11-09T14:19:40.968Z,2088
2022-11-09T14:20:46.999Z,2268
2022-11-09T14:21:52.412Z,2648
2022-11-09T14:22:58.313Z,3012
2022-11-09T14:24:04.657Z,3088
2022-11-09T14:25:10.828Z,3112
2022-11-09T14:26:16.874Z,3212
2022-11-09T14:27:23.231Z,3104
2022-11-09T14:28:29.177Z,2880
2022-11-09T14:29:35.524Z,2628
2022-11-09T14:30:41.674Z,2544
2022-11-09T14:31:47.739Z,2656
2022-11-09T14:32:54.061Z,2648
2022-11-09T14:34:00.153Z,2864
2022-11-09T14:35:06.220Z,2668
2022-11-09T14:36:11.564Z,2360
2022-11-09T14:37:17.726Z,2192
2022-11-09T14:38:23.881Z,2360
2022-11-09T14:39:30.052Z,2596
2022-11-09T14:40:36.034Z,2536
2022-11-09T14:41:42.453Z,2228
2022-11-09T14:42:48.625Z,2124
2022-11-09T14:43:54.741Z,2072
2022-11-09T14:45:00.716Z,2244
2022-11-09T14:46:07.085Z,1896
2022-11-09T14:47:13.265Z,1452
2022-11-09T14:48:19.469Z,1504
2022-11-09T14:49:25.555Z,1656
2022-11-09T14:50:30.848Z,1656
2022-11-09T14:51:36.899Z,1572
2022-11-09T14:52:43.004Z,1524
2022-11-09T14:53:49.104Z,1280
2022-11-09T14:54:55.385Z,1164
2022-11-09T14:56:01.615Z,1192
2022-11-09T14:57:07.756Z,1240
2022-11-09T14:58:14.033Z,1240
2022-11-09T14:59:20.079Z,1264
2022-11-09T15:00:26.267Z,1312
2022-11-09T15:01:32.431Z,1304
2022-11-09T15:02:38.686Z,1188
2022-11-09T15:03:44.782Z,1340
2022-11-09T15:04:49.917Z,1152
2022-11-09T15:05:56.128Z,968
2022-11-09T15:07:02.332Z,992
2022-11-09T15:08:08.463Z,960
2022-11-09T15:09:14.669Z,1012
2022-11-09T15:10:20.933Z,1068
2022-11-09T15:11:26.814Z,1040
2022-11-09T15:12:33.245Z,1000
2022-11-09T15:13:39.164Z,760
2022-11-09T15:14:45.356Z,636
2022-11-09T15:15:51.669Z,632
2022-11-09T15:16:57.843Z,644
2022-11-09T15:18:04.010Z,688
2022-11-09T15:19:09.208Z,712
2022-11-09T15:20:15.355Z,876
2022-11-09T15:21:21.531Z,840
2022-11-09T15:22:27.719Z,700